createdAt,value
2022-11-05T00:01:49.657Z,0
2022-11-05T00:06:49.719Z,0
2022-11-05T00:11:49.647Z,0
2022-11-05T00:16:49.610Z,0
2022-11-05T00:21:49.632Z,0
2022-11-05T00:31:49.664Z,0
2022-11-05T00:36:49.742Z,0
2022-11-05T00:41:49.677Z,0
2022-11-05T00:46:49.550Z,0
2022-11-05T00:51:49.595Z,0
2022-11-05T00:56:49.559Z,0
2022-11-05T01:01:49.722Z,0
2022-11-05T01:06:49.602Z,0
2022-11-05T01:11:49.654Z,0
2022-11-05T01:31:49.671Z,0
2022-11-05T01:37:19.586Z,0
2022-11-05T01:41:49.726Z,0
2022-11-05T01:46:55.767Z,0
2022-11-05T01:51:57.205Z,0
2022-11-05T01:56:57.239Z,0
2022-11-05T02:01:57.265Z,0
2022-11-05T02:06:57.209Z,0
2022-11-05T02:11:57.196Z,0
2022-11-05T02:16:57.244Z,0
2022-11-05T02:21:57.197Z,0
2022-11-05T02:26:57.337Z,0
2022-11-05T02:31:57.208Z,0
2022-11-05T02:36:57.218Z,0
2022-11-05T02:42:04.625Z,0
2022-11-05T02:46:57.171Z,0
2022-11-05T02:51:57.270Z,0
2022-11-05T02:56:57.215Z,0
2022-11-05T03:01:57.305Z,0
2022-11-05T03:06:57.183Z,0
2022-11-05T03:11:57.271Z,0
2022-11-05T03:16:57.186Z,0
2022-11-05T03:21:57.263Z,0
2022-11-05T03:26:57.227Z,0
2022-11-05T03:31:57.280Z,0
2022-11-05T03:36:57.337Z,0
2022-11-05T03:41:57.289Z,0
2022-11-05T03:46:57.218Z,0
2022-11-05T03:51:57.234Z,0
2022-11-05T03:56:57.245Z,0
2022-11-05T04:01:57.300Z,0
2022-11-05T04:06:57.283Z,0
2022-11-05T04:11:57.214Z,0
2022-11-05T04:16:57.231Z,0
2022-11-05T04:21:57.254Z,0
2022-11-05T04:27:19.046Z,0
2022-11-05T04:32:54.187Z,0
2022-11-05T04:36:57.536Z,0
2022-11-05T04:41:57.243Z,0
2022-11-05T04:46:57.284Z,0
2022-11-05T04:51:57.280Z,0
2022-11-05T04:56:57.206Z,0
2022-11-05T05:01:57.259Z,0
2022-11-05T05:06:57.295Z,0
2022-11-05T05:11:57.296Z,0
2022-11-05T05:16:57.371Z,0
2022-11-05T05:21:57.252Z,0
2022-11-05T05:26:57.310Z,0
2022-11-05T05:31:57.372Z,0
2022-11-05T05:36:57.219Z,0
2022-11-05T05:41:57.243Z,0
2022-11-05T05:46:57.241Z,0
2022-11-05T05:51:57.229Z,0
2022-11-05T05:56:57.289Z,0
2022-11-05T06:01:57.328Z,0
2022-11-05T06:06:57.253Z,0
2022-11-05T06:11:57.293Z,0
2022-11-05T06:16:57.221Z,0
2022-11-05T06:21:57.214Z,0
2022-11-05T06:27:04.451Z,0
2022-11-05T06:31:57.245Z,0
2022-11-05T06:36:57.287Z,0
2022-11-05T06:42:18.872Z,0
2022-11-05T06:47:32.736Z,0
2022-11-05T06:51:57.298Z,265
2022-11-05T06:56:57.227Z,267
2022-11-05T07:01:57.300Z,266
2022-11-05T07:06:57.224Z,271
2022-11-05T07:11:57.262Z,275
2022-11-05T07:16:57.266Z,277
2022-11-05T07:21:57.241Z,276
2022-11-05T07:26:57.299Z,275
2022-11-05T07:32:39.121Z,277
2022-11-05T07:36:57.260Z,283
2022-11-05T07:41:57.321Z,288
2022-11-05T07:46:57.281Z,284
2022-11-05T07:51:57.347Z,284
2022-11-05T07:56:57.304Z,283
2022-11-05T08:01:57.295Z,284
2022-11-05T08:06:57.217Z,289
2022-11-05T08:12:02.963Z,301
2022-11-05T08:16:57.263Z,345
2022-11-05T08:21:57.248Z,332
2022-11-05T08:26:57.352Z,310
2022-11-05T08:31:57.309Z,297
2022-11-05T08:36:57.275Z,309
2022-11-05T08:41:57.316Z,298
2022-11-05T08:46:57.248Z,290
2022-11-05T08:51:57.303Z,286
2022-11-05T08:56:57.428Z,307
2022-11-05T09:01:57.416Z,297
2022-11-05T09:06:57.283Z,286
2022-11-05T09:12:13.820Z,294
2022-11-05T09:16:57.357Z,302
2022-11-05T09:21:57.276Z,300
2022-11-05T09:27:01.718Z,318
2022-11-05T09:31:57.580Z,308
2022-11-05T09:37:02.358Z,299
2022-11-05T09:41:57.479Z,292
2022-11-05T09:46:57.624Z,282
2022-11-05T09:51:57.396Z,277
2022-11-05T09:56:57.305Z,280
2022-11-05T10:01:57.444Z,289
2022-11-05T10:06:57.378Z,284
2022-11-05T10:11:57.415Z,291
2022-11-05T10:16:57.791Z,300
2022-11-05T10:22:06.404Z,304
2022-11-05T10:26:57.514Z,323
2022-11-05T10:31:57.259Z,350
2022-11-05T10:36:57.512Z,376
2022-11-05T10:41:57.337Z,370
2022-11-05T10:46:57.297Z,367
2022-11-05T10:51:57.417Z,336
2022-11-05T10:56:57.329Z,313
2022-11-05T11:01:57.682Z,299
2022-11-05T11:06:57.326Z,307
2022-11-05T11:11:57.609Z,314
2022-11-05T11:16:57.631Z,307
2022-11-05T11:21:57.395Z,330
2022-11-05T11:26:57.438Z,341
2022-11-05T11:31:57.409Z,359
2022-11-05T11:36:57.354Z,377
2022-11-05T11:41:57.357Z,341
2022-11-05T11:46:57.393Z,319
2022-11-05T11:51:57.461Z,297
2022-11-05T11:56:57.359Z,299
2022-11-05T12:01:57.520Z,300
2022-11-05T12:06:57.351Z,307
2022-11-05T12:11:57.422Z,298
2022-11-05T12:16:57.726Z,280
2022-11-05T12:21:57.384Z,289
2022-11-05T12:26:57.609Z,295
2022-11-05T12:31:57.290Z,313
2022-11-05T12:36:57.310Z,316
2022-11-05T12:41:57.560Z,312
2022-11-05T12:46:57.419Z,295
2022-11-05T12:51:57.317Z,306
2022-11-05T12:56:57.398Z,288
2022-11-05T13:01:57.450Z,276
2022-11-05T13:06:57.404Z,293
2022-11-05T13:11:57.313Z,326
2022-11-05T13:16:57.306Z,333
2022-11-05T13:21:57.424Z,311
2022-11-05T13:26:57.612Z,291
2022-11-05T13:32:04.745Z,288
2022-11-05T13:36:57.337Z,302
2022-11-05T13:48:28.710Z,291
2022-11-05T13:51:57.406Z,282
2022-11-05T13:56:57.322Z,287
2022-11-05T14:01:57.463Z,282
2022-11-05T14:06:57.263Z,282
2022-11-05T14:11:57.346Z,280
2022-11-05T14:16:57.274Z,282
2022-11-05T14:21:57.376Z,282
2022-11-05T14:26:57.293Z,282
2022-11-05T14:32:09.111Z,274
2022-11-05T14:36:57.311Z,271
2022-11-05T14:41:57.325Z,273
2022-11-05T15:27:05.228Z,0
2022-11-05T15:32:04.367Z,0
2022-11-05T15:37:10.359Z,0
2022-11-05T15:42:08.645Z,0
2022-11-05T15:47:08.438Z,0
2022-11-05T15:52:47.740Z,0
2022-11-05T15:57:08.385Z,0
2022-11-05T16:02:08.932Z,0
2022-11-05T16:07:08.435Z,0
2022-11-05T16:12:08.507Z,0
2022-11-05T16:17:08.532Z,0
2022-11-05T16:22:08.503Z,0
2022-11-05T16:27:08.433Z,0
2022-11-05T16:32:30.105Z,0
2022-11-05T16:37:08.426Z,0
2022-11-05T16:42:08.419Z,0
2022-11-05T16:47:08.416Z,0
2022-11-05T16:52:08.435Z,0
2022-11-05T16:57:08.401Z,0
2022-11-05T17:02:08.519Z,0
2022-11-05T17:07:08.375Z,0
2022-11-05T17:12:08.428Z,0
2022-11-05T17:17:08.385Z,0
2022-11-05T17:22:08.476Z,0
2022-11-05T17:27:08.471Z,0
2022-11-05T17:32:08.383Z,0
2022-11-05T17:37:08.423Z,0
2022-11-05T17:42:08.429Z,0
2022-11-05T17:47:08.405Z,0
2022-11-05T17:52:08.453Z,0
2022-11-05T17:57:08.418Z,0
2022-11-05T18:02:08.578Z,0
2022-11-05T18:07:08.435Z,0
2022-11-05T18:12:08.425Z,0
2022-11-05T18:17:08.427Z,0
2022-11-05T18:22:08.424Z,0
2022-11-05T18:27:08.458Z,0
2022-11-05T18:32:08.443Z,0
2022-11-05T18:37:08.420Z,0
2022-11-05T18:42:08.468Z,0
2022-11-05T18:47:08.418Z,0
2022-11-05T18:52:08.486Z,0
2022-11-05T18:57:08.530Z,0
2022-11-05T19:02:08.672Z,0
2022-11-05T19:07:08.432Z,0
2022-11-05T19:12:08.424Z,0
2022-11-05T19:17:08.425Z,0
2022-11-05T19:22:08.468Z,0
2022-11-05T19:52:08.616Z,0
2022-11-05T19:57:25.244Z,0
2022-11-05T20:02:15.924Z,0
2022-11-05T20:12:08.506Z,0
2022-11-05T20:17:35.121Z,0
2022-11-05T20:22:08.504Z,0
2022-11-05T20:27:08.460Z,0
2022-11-05T20:32:08.504Z,0
2022-11-05T20:37:08.392Z,0
2022-11-05T20:42:08.522Z,0
2022-11-05T20:47:08.407Z,0
2022-11-05T20:52:08.449Z,0
2022-11-05T20:57:08.427Z,0
2022-11-05T21:02:08.624Z,0
2022-11-05T21:07:15.592Z,0
2022-11-05T21:12:08.427Z,0
2022-11-05T21:17:19.367Z,0
2022-11-05T21:22:16.544Z,0
2022-11-05T21:27:08.750Z,0
2022-11-05T21:32:08.757Z,0
2022-11-05T21:37:08.589Z,0
2022-11-05T21:42:08.957Z,0
2022-11-05T21:47:08.449Z,0
2022-11-05T21:52:08.549Z,0
2022-11-05T21:57:11.695Z,0
2022-11-05T22:02:08.588Z,0
2022-11-05T22:12:08.458Z,0
2022-11-05T22:17:08.419Z,0
2022-11-05T22:22:08.437Z,0
2022-11-05T22:27:08.510Z,0
2022-11-05T22:32:08.442Z,0
2022-11-05T22:37:08.561Z,0
2022-11-05T22:42:09.520Z,0
2022-11-05T22:53:42.608Z,0
2022-11-05T22:57:12.430Z,0
2022-11-05T23:02:12.474Z,0
2022-11-05T23:07:12.430Z,0
2022-11-05T23:12:12.392Z,0
2022-11-05T23:17:12.367Z,0
2022-11-05T23:22:12.389Z,0
2022-11-05T23:27:12.332Z,0
2022-11-05T23:32:12.348Z,0
2022-11-05T23:37:12.642Z,0
2022-11-05T23:42:12.309Z,0
2022-11-05T23:47:12.297Z,0
2022-11-05T23:52:12.368Z,0
2022-11-05T23:57:12.323Z,0
